createdAt,value
2018-08-27T00:05:06.000Z,1002.587
2018-08-27T00:15:06.000Z,1002.402
2018-08-27T00:25:06.000Z,1002.196
2018-08-27T00:35:06.000Z,1002.076
2018-08-27T00:45:06.000Z,1001.86
2018-08-27T00:55:06.000Z,1001.657
2018-08-27T01:05:06.000Z,1001.51
2018-08-27T01:15:06.000Z,1001.467
2018-08-27T01:25:06.000Z,1001.386
2018-08-27T01:35:06.000Z,1001.32
2018-08-27T01:45:06.000Z,1001.29
2018-08-27T01:55:06.000Z,1001.114
2018-08-27T02:05:06.000Z,1001.007
2018-08-27T02:15:06.000Z,1000.914
2018-08-27T02:25:06.000Z,1000.775
2018-08-27T02:35:06.000Z,1000.698
2018-08-27T02:45:06.000Z,1000.658
2018-08-27T02:55:06.000Z,1000.467
2018-08-27T03:05:06.000Z,1000.564
2018-08-27T03:15:06.000Z,1000.421
2018-08-27T03:25:06.000Z,1000.246
2018-08-27T03:35:06.000Z,1000.299
2018-08-27T03:45:06.000Z,1000.311
2018-08-27T03:55:06.000Z,1000.198
2018-08-27T04:05:06.000Z,1000.143
2018-08-27T04:15:06.000Z,1000.289
2018-08-27T04:25:06.000Z,1000.302
2018-08-27T04:35:06.000Z,1000.181
2018-08-27T04:45:06.000Z,1000.239
2018-08-27T04:55:06.000Z,1000.404
2018-08-27T05:05:06.000Z,1000.401
2018-08-27T05:15:06.000Z,1000.49
2018-08-27T05:25:06.000Z,1000.495
2018-08-27T05:35:06.000Z,1000.495
2018-08-27T05:45:06.000Z,1000.63
2018-08-27T05:55:06.000Z,1000.591
2018-08-27T06:05:06.000Z,1000.658
2018-08-27T06:15:06.000Z,1000.825
2018-08-27T06:25:06.000Z,1000.923
2018-08-27T06:35:07.000Z,1001.008
2018-08-27T06:45:07.000Z,1000.96
2018-08-27T06:55:07.000Z,1001.05
2018-08-27T07:05:07.000Z,1001.079
2018-08-27T07:15:07.000Z,1001.146
2018-08-27T07:25:07.000Z,1001.159
2018-08-27T07:35:07.000Z,1001.186
2018-08-27T07:45:07.000Z,1001.275
2018-08-27T07:55:07.000Z,1001.289
2018-08-27T08:05:07.000Z,1001.277
2018-08-27T08:15:07.000Z,1001.319
2018-08-27T08:25:07.000Z,1001.451
2018-08-27T08:35:07.000Z,1001.453
2018-08-27T08:45:07.000Z,1001.591
2018-08-27T08:55:07.000Z,1001.752
2018-08-27T09:05:07.000Z,1001.793
2018-08-27T09:15:07.000Z,1001.83
2018-08-27T09:25:07.000Z,1001.853
2018-08-27T09:35:07.000Z,1001.832
2018-08-27T09:45:07.000Z,1001.863
2018-08-27T09:55:07.000Z,1001.973
2018-08-27T10:05:07.000Z,1001.946
2018-08-27T10:15:07.000Z,1001.975
2018-08-27T10:25:07.000Z,1001.986
2018-08-27T10:35:07.000Z,1002.085
2018-08-27T10:45:07.000Z,1002.077
2018-08-27T10:55:07.000Z,1002.107
2018-08-27T11:05:07.000Z,1002.206
2018-08-27T11:15:07.000Z,1002.222
2018-08-27T11:25:07.000Z,1002.195
2018-08-27T11:35:07.000Z,1002.179
2018-08-27T11:45:07.000Z,1002.194
2018-08-27T11:55:07.000Z,1002.227
2018-08-27T12:05:07.000Z,1002.554
2018-08-27T12:15:07.000Z,1002.532
2018-08-27T12:25:07.000Z,1002.655
2018-08-27T12:35:07.000Z,1002.619
2018-08-27T12:45:07.000Z,1002.674
2018-08-27T12:55:07.000Z,1002.751
2018-08-27T13:05:08.000Z,1002.898
2018-08-27T13:15:07.000Z,1003.239
2018-08-27T13:25:07.000Z,1003.274
2018-08-27T13:35:07.000Z,1003.585
2018-08-27T13:45:08.000Z,1003.813
2018-08-27T13:55:08.000Z,1003.873
2018-08-27T14:05:07.000Z,1004.048
2018-08-27T14:15:07.000Z,1004.131
2018-08-27T14:25:07.000Z,1004.299
2018-08-27T14:35:07.000Z,1004.455
2018-08-27T14:45:07.000Z,1004.563
2018-08-27T14:55:07.000Z,1004.601
2018-08-27T15:05:08.000Z,1004.753
2018-08-27T15:15:08.000Z,1004.96
2018-08-27T15:25:08.000Z,1005.043
2018-08-27T15:35:08.000Z,1005.158
2018-08-27T15:45:08.000Z,1005.301
2018-08-27T15:55:08.000Z,1005.359
2018-08-27T16:05:08.000Z,1005.529
2018-08-27T16:15:08.000Z,1005.618
2018-08-27T16:25:08.000Z,1005.868
2018-08-27T16:35:08.000Z,1006.056
2018-08-27T16:45:08.000Z,1006.143
2018-08-27T16:55:08.000Z,1006.218
2018-08-27T17:05:08.000Z,1006.283
2018-08-27T17:15:08.000Z,1006.435
2018-08-27T17:25:08.000Z,1006.498
2018-08-27T17:35:08.000Z,1006.555
2018-08-27T17:45:08.000Z,1006.691
2018-08-27T17:55:08.000Z,1006.893
2018-08-27T18:05:08.000Z,1007.068
2018-08-27T18:15:08.000Z,1007.153
2018-08-27T18:25:08.000Z,1007.352
2018-08-27T18:35:08.000Z,1007.515
2018-08-27T18:45:08.000Z,1007.613
2018-08-27T18:55:08.000Z,1007.781
2018-08-27T19:05:08.000Z,1007.93
2018-08-27T19:15:08.000Z,1008.071
2018-08-27T19:25:08.000Z,1008.165
2018-08-27T19:35:08.000Z,1008.247
2018-08-27T19:45:08.000Z,1008.413
2018-08-27T19:55:08.000Z,1008.456
2018-08-27T20:05:08.000Z,1008.563
2018-08-27T20:15:08.000Z,1008.676
2018-08-27T20:25:08.000Z,1008.697
2018-08-27T20:35:08.000Z,1008.795
2018-08-27T20:45:08.000Z,1008.9
2018-08-27T20:55:08.000Z,1009.07
2018-08-27T21:05:08.000Z,1009.162
2018-08-27T21:15:08.000Z,1009.272
2018-08-27T21:25:08.000Z,1009.394
2018-08-27T21:35:08.000Z,1009.46
2018-08-27T21:45:08.000Z,1009.568
2018-08-27T21:55:08.000Z,1009.56
2018-08-27T22:05:08.000Z,1009.578
2018-08-27T22:15:08.000Z,1009.673
2018-08-27T22:25:08.000Z,1009.797
2018-08-27T22:35:08.000Z,1009.816
2018-08-27T22:45:08.000Z,1009.865
2018-08-27T22:55:08.000Z,1009.895
2018-08-27T23:05:08.000Z,1009.986
2018-08-27T23:15:09.000Z,1010.091
2018-08-27T23:25:09.000Z,1010.153
2018-08-27T23:35:09.000Z,1010.159
2018-08-27T23:45:09.000Z,1010.175
2018-08-27T23:55:09.000Z,1010.254
